sensor_id;sensor_type;location;lat;lon;timestamp;P1;durP1;ratioP1;P2;durP2;ratioP2
17510;SDS011;8873;48.818;9.422;2024-01-10T00:02:19;31.70;;;12.40;;
17510;SDS011;8873;48.818;9.422;2024-01-10T00:04:47;36.40;;;13.07;;
17510;SDS011;8873;48.818;9.422;2024-01-10T00:07:15;32.03;;;11.37;;
17510;SDS011;8873;48.818;9.422;2024-01-10T00:09:43;29.93;;;12.63;;
17510;SDS011;8873;48.818;9.422;2024-01-10T00:12:13;30.73;;;12.57;;
17510;SDS011;8873;48.818;9.422;2024-01-10T00:14:40;28.20;;;11.40;;
17510;SDS011;8873;48.818;9.422;2024-01-10T00:17:08;35.60;;;12.50;;
17510;SDS011;8873;48.818;9.422;2024-01-10T00:19:36;26.83;;;11.47;;
17510;SDS011;8873;48.818;9.422;2024-01-10T00:22:04;30.23;;;11.77;;
17510;SDS011;8873;48.818;9.422;2024-01-10T00:24:32;28.23;;;11.20;;
17510;SDS011;8873;48.818;9.422;2024-01-10T00:27:00;24.53;;;11.00;;
17510;SDS011;8873;48.818;9.422;2024-01-10T00:29:28;28.07;;;11.07;;
17510;SDS011;8873;48.818;9.422;2024-01-10T00:31:56;32.17;;;12.07;;
17510;SDS011;8873;48.818;9.422;2024-01-10T00:34:26;25.33;;;11.57;;
17510;SDS011;8873;48.818;9.422;2024-01-10T00:36:53;31.80;;;13.17;;
17510;SDS011;8873;48.818;9.422;2024-01-10T00:39:21;32.67;;;12.40;;
17510;SDS011;8873;48.818;9.422;2024-01-10T00:41:49;25.57;;;10.67;;
17510;SDS011;8873;48.818;9.422;2024-01-10T00:44:17;25.50;;;11.60;;
17510;SDS011;8873;48.818;9.422;2024-01-10T00:46:46;21.87;;;9.73;;
17510;SDS011;8873;48.818;9.422;2024-01-10T00:49:13;27.97;;;10.43;;
17510;SDS011;8873;48.818;9.422;2024-01-10T00:51:41;31.13;;;11.67;;
17510;SDS011;8873;48.818;9.422;2024-01-10T00:54:09;31.87;;;12.27;;
17510;SDS011;8873;48.818;9.422;2024-01-10T00:56:36;26.83;;;12.03;;
17510;SDS011;8873;48.818;9.422;2024-01-10T00:59:04;32.83;;;12.80;;
17510;SDS011;8873;48.818;9.422;2024-01-10T01:01:31;31.60;;;12.27;;
17510;SDS011;8873;48.818;9.422;2024-01-10T01:04:01;30.23;;;11.77;;
17510;SDS011;8873;48.818;9.422;2024-01-10T01:06:28;33.30;;;13.17;;
17510;SDS011;8873;48.818;9.422;2024-01-10T01:08:56;30.47;;;12.00;;
17510;SDS011;8873;48.818;9.422;2024-01-10T01:11:25;34.57;;;12.77;;
17510;SDS011;8873;48.818;9.422;2024-01-10T01:13:53;36.33;;;13.27;;
17510;SDS011;8873;48.818;9.422;2024-01-10T01:16:20;34.77;;;11.87;;
17510;SDS011;8873;48.818;9.422;2024-01-10T01:18:48;29.70;;;12.63;;
17510;SDS011;8873;48.818;9.422;2024-01-10T01:21:17;28.27;;;11.33;;
17510;SDS011;8873;48.818;9.422;2024-01-10T01:23:45;30.00;;;12.10;;
17510;SDS011;8873;48.818;9.422;2024-01-10T01:26:12;32.60;;;11.90;;
17510;SDS011;8873;48.818;9.422;2024-01-10T01:28:40;29.37;;;12.57;;
17510;SDS011;8873;48.818;9.422;2024-01-10T01:31:08;29.83;;;12.27;;
17510;SDS011;8873;48.818;9.422;2024-01-10T01:33:36;27.97;;;12.70;;
17510;SDS011;8873;48.818;9.422;2024-01-10T01:36:05;35.40;;;12.03;;
17510;SDS011;8873;48.818;9.422;2024-01-10T01:38:34;29.47;;;11.63;;
17510;SDS011;8873;48.818;9.422;2024-01-10T01:41:02;28.17;;;11.30;;
17510;SDS011;8873;48.818;9.422;2024-01-10T01:43:32;25.53;;;11.47;;
17510;SDS011;8873;48.818;9.422;2024-01-10T01:46:00;34.53;;;13.33;;
17510;SDS011;8873;48.818;9.422;2024-01-10T01:48:28;35.67;;;12.53;;
17510;SDS011;8873;48.818;9.422;2024-01-10T01:50:56;30.97;;;12.00;;
17510;SDS011;8873;48.818;9.422;2024-01-10T01:53:24;36.27;;;11.63;;
17510;SDS011;8873;48.818;9.422;2024-01-10T01:55:54;29.73;;;12.10;;
17510;SDS011;8873;48.818;9.422;2024-01-10T01:58:22;29.40;;;12.30;;
17510;SDS011;8873;48.818;9.422;2024-01-10T02:00:50;31.10;;;11.63;;
17510;SDS011;8873;48.818;9.422;2024-01-10T02:03:18;24.67;;;10.77;;
17510;SDS011;8873;48.818;9.422;2024-01-10T02:05:47;28.67;;;12.17;;
17510;SDS011;8873;48.818;9.422;2024-01-10T02:08:15;29.87;;;12.80;;
17510;SDS011;8873;48.818;9.422;2024-01-10T02:10:43;29.57;;;11.90;;
17510;SDS011;8873;48.818;9.422;2024-01-10T02:13:12;32.30;;;12.00;;
17510;SDS011;8873;48.818;9.422;2024-01-10T02:15:40;22.43;;;11.03;;
17510;SDS011;8873;48.818;9.422;2024-01-10T02:18:07;25.97;;;10.60;;
17510;SDS011;8873;48.818;9.422;2024-01-10T02:20:37;32.10;;;12.07;;
17510;SDS011;8873;48.818;9.422;2024-01-10T02:23:05;26.97;;;11.33;;
17510;SDS011;8873;48.818;9.422;2024-01-10T02:25:34;29.03;;;11.23;;
17510;SDS011;8873;48.818;9.422;2024-01-10T02:28:02;27.00;;;12.07;;
17510;SDS011;8873;48.818;9.422;2024-01-10T02:30:29;29.13;;;10.53;;
17510;SDS011;8873;48.818;9.422;2024-01-10T02:32:57;30.57;;;11.27;;
17510;SDS011;8873;48.818;9.422;2024-01-10T02:35:25;30.30;;;10.90;;
17510;SDS011;8873;48.818;9.422;2024-01-10T02:37:53;28.30;;;10.87;;
17510;SDS011;8873;48.818;9.422;2024-01-10T02:40:21;25.20;;;10.63;;
17510;SDS011;8873;48.818;9.422;2024-01-10T02:42:50;32.53;;;11.47;;
17510;SDS011;8873;48.818;9.422;2024-01-10T02:45:18;30.23;;;11.30;;
17510;SDS011;8873;48.818;9.422;2024-01-10T02:47:45;29.63;;;13.03;;
17510;SDS011;8873;48.818;9.422;2024-01-10T02:50:13;32.60;;;11.40;;
17510;SDS011;8873;48.818;9.422;2024-01-10T02:52:41;26.27;;;10.97;;
17510;SDS011;8873;48.818;9.422;2024-01-10T02:55:09;33.10;;;11.53;;
17510;SDS011;8873;48.818;9.422;2024-01-10T02:57:36;32.50;;;12.57;;
17510;SDS011;8873;48.818;9.422;2024-01-10T03:00:06;24.07;;;10.53;;
17510;SDS011;8873;48.818;9.422;2024-01-10T03:02:37;31.67;;;11.73;;
17510;SDS011;8873;48.818;9.422;2024-01-10T03:05:05;26.07;;;11.00;;
17510;SDS011;8873;48.818;9.422;2024-01-10T03:07:33;34.37;;;11.80;;
17510;SDS011;8873;48.818;9.422;2024-01-10T03:10:01;27.73;;;11.60;;
17510;SDS011;8873;48.818;9.422;2024-01-10T03:12:30;28.97;;;10.90;;
17510;SDS011;8873;48.818;9.422;2024-01-10T03:14:57;26.20;;;10.67;;
17510;SDS011;8873;48.818;9.422;2024-01-10T03:17:27;35.53;;;10.77;;
17510;SDS011;8873;48.818;9.422;2024-01-10T03:19:55;31.63;;;11.37;;
17510;SDS011;8873;48.818;9.422;2024-01-10T03:22:23;27.90;;;10.30;;
17510;SDS011;8873;48.818;9.422;2024-01-10T03:24:50;27.73;;;10.03;;
17510;SDS011;8873;48.818;9.422;2024-01-10T03:27:18;37.27;;;11.47;;
17510;SDS011;8873;48.818;9.422;2024-01-10T03:29:45;26.33;;;10.60;;
17510;SDS011;8873;48.818;9.422;2024-01-10T03:32:13;31.20;;;11.03;;
17510;SDS011;8873;48.818;9.422;2024-01-10T03:34:42;31.83;;;11.20;;
17510;SDS011;8873;48.818;9.422;2024-01-10T03:37:10;28.57;;;10.73;;
17510;SDS011;8873;48.818;9.422;2024-01-10T03:39:37;29.50;;;11.43;;
17510;SDS011;8873;48.818;9.422;2024-01-10T03:42:05;24.87;;;10.97;;
17510;SDS011;8873;48.818;9.422;2024-01-10T03:44:33;30.93;;;11.07;;
17510;SDS011;8873;48.818;9.422;2024-01-10T03:47:00;27.03;;;9.93;;
17510;SDS011;8873;48.818;9.422;2024-01-10T03:49:29;28.60;;;10.60;;
17510;SDS011;8873;48.818;9.422;2024-01-10T03:51:58;27.30;;;11.70;;
17510;SDS011;8873;48.818;9.422;2024-01-10T03:54:25;36.23;;;12.43;;
17510;SDS011;8873;48.818;9.422;2024-01-10T03:56:53;35.87;;;12.10;;
17510;SDS011;8873;48.818;9.422;2024-01-10T03:59:20;27.97;;;10.97;;
17510;SDS011;8873;48.818;9.422;2024-01-10T04:01:48;32.67;;;10.70;;
17510;SDS011;8873;48.818;9.422;2024-01-10T04:04:16;28.87;;;12.30;;
17510;SDS011;8873;48.818;9.422;2024-01-10T04:06:43;26.10;;;10.93;;
17510;SDS011;8873;48.818;9.422;2024-01-10T04:09:12;31.60;;;11.53;;
17510;SDS011;8873;48.818;9.422;2024-01-10T04:11:40;27.43;;;11.60;;
17510;SDS011;8873;48.818;9.422;2024-01-10T04:14:10;28.20;;;10.70;;
17510;SDS011;8873;48.818;9.422;2024-01-10T04:16:38;32.50;;;11.27;;
17510;SDS011;8873;48.818;9.422;2024-01-10T04:19:06;24.73;;;10.30;;
17510;SDS011;8873;48.818;9.422;2024-01-10T04:21:34;27.70;;;11.50;;
17510;SDS011;8873;48.818;9.422;2024-01-10T04:24:05;31.27;;;11.70;;
17510;SDS011;8873;48.818;9.422;2024-01-10T04:26:33;28.50;;;9.83;;
17510;SDS011;8873;48.818;9.422;2024-01-10T04:29:01;22.93;;;10.43;;
17510;SDS011;8873;48.818;9.422;2024-01-10T04:31:29;27.40;;;11.20;;
17510;SDS011;8873;48.818;9.422;2024-01-10T04:33:57;28.63;;;10.53;;
17510;SDS011;8873;48.818;9.422;2024-01-10T04:36:24;27.27;;;11.37;;
17510;SDS011;8873;48.818;9.422;2024-01-10T04:38:52;25.80;;;10.93;;
17510;SDS011;8873;48.818;9.422;2024-01-10T04:41:19;32.07;;;11.80;;
17510;SDS011;8873;48.818;9.422;2024-01-10T04:43:50;31.97;;;11.60;;
17510;SDS011;8873;48.818;9.422;2024-01-10T04:46:18;32.00;;;12.33;;
17510;SDS011;8873;48.818;9.422;2024-01-10T04:48:45;37.10;;;13.17;;
17510;SDS011;8873;48.818;9.422;2024-01-10T04:51:13;31.30;;;11.67;;
17510;SDS011;8873;48.818;9.422;2024-01-10T04:53:43;25.63;;;10.93;;
17510;SDS011;8873;48.818;9.422;2024-01-10T04:56:11;24.60;;;10.20;;
17510;SDS011;8873;48.818;9.422;2024-01-10T04:58:38;25.80;;;10.77;;
17510;SDS011;8873;48.818;9.422;2024-01-10T05:01:08;27.57;;;10.87;;
17510;SDS011;8873;48.818;9.422;2024-01-10T05:03:36;27.33;;;9.30;;
17510;SDS011;8873;48.818;9.422;2024-01-10T05:06:04;28.30;;;11.10;;
17510;SDS011;8873;48.818;9.422;2024-01-10T05:08:32;28.43;;;10.80;;
17510;SDS011;8873;48.818;9.422;2024-01-10T05:11:00;27.47;;;10.70;;
17510;SDS011;8873;48.818;9.422;2024-01-10T05:13:28;32.23;;;11.47;;
17510;SDS011;8873;48.818;9.422;2024-01-10T05:15:55;27.83;;;10.30;;
17510;SDS011;8873;48.818;9.422;2024-01-10T05:18:24;29.50;;;10.73;;
17510;SDS011;8873;48.818;9.422;2024-01-10T05:20:52;32.33;;;11.07;;
17510;SDS011;8873;48.818;9.422;2024-01-10T05:23:20;27.20;;;10.70;;
17510;SDS011;8873;48.818;9.422;2024-01-10T05:25:47;34.77;;;11.73;;
17510;SDS011;8873;48.818;9.422;2024-01-10T05:28:18;27.03;;;10.63;;
17510;SDS011;8873;48.818;9.422;2024-01-10T05:30:46;28.40;;;11.37;;
17510;SDS011;8873;48.818;9.422;2024-01-10T05:33:16;31.70;;;10.47;;
17510;SDS011;8873;48.818;9.422;2024-01-10T05:35:45;27.73;;;11.70;;
17510;SDS011;8873;48.818;9.422;2024-01-10T05:38:13;29.10;;;12.27;;
17510;SDS011;8873;48.818;9.422;2024-01-10T05:40:41;28.60;;;9.60;;
17510;SDS011;8873;48.818;9.422;2024-01-10T05:43:09;32.37;;;11.23;;
17510;SDS011;8873;48.818;9.422;2024-01-10T05:45:37;28.20;;;10.93;;
17510;SDS011;8873;48.818;9.422;2024-01-10T05:48:05;24.33;;;10.87;;
17510;SDS011;8873;48.818;9.422;2024-01-10T05:50:33;24.70;;;10.47;;
17510;SDS011;8873;48.818;9.422;2024-01-10T05:53:02;22.63;;;9.70;;
17510;SDS011;8873;48.818;9.422;2024-01-10T05:55:30;35.13;;;11.97;;
17510;SDS011;8873;48.818;9.422;2024-01-10T05:57:58;31.23;;;11.63;;
17510;SDS011;8873;48.818;9.422;2024-01-10T06:00:26;28.07;;;11.40;;
17510;SDS011;8873;48.818;9.422;2024-01-10T06:02:54;31.30;;;12.60;;
17510;SDS011;8873;48.818;9.422;2024-01-10T06:05:22;27.97;;;11.60;;
17510;SDS011;8873;48.818;9.422;2024-01-10T06:07:49;25.57;;;10.63;;
17510;SDS011;8873;48.818;9.422;2024-01-10T06:10:18;24.57;;;10.87;;
17510;SDS011;8873;48.818;9.422;2024-01-10T06:12:46;27.60;;;11.83;;
17510;SDS011;8873;48.818;9.422;2024-01-10T06:15:15;25.57;;;10.67;;
17510;SDS011;8873;48.818;9.422;2024-01-10T06:17:43;32.27;;;13.23;;
17510;SDS011;8873;48.818;9.422;2024-01-10T06:20:11;28.97;;;11.60;;
17510;SDS011;8873;48.818;9.422;2024-01-10T06:22:38;36.07;;;12.47;;
17510;SDS011;8873;48.818;9.422;2024-01-10T06:25:06;26.17;;;12.13;;
17510;SDS011;8873;48.818;9.422;2024-01-10T06:27:35;28.27;;;11.83;;
17510;SDS011;8873;48.818;9.422;2024-01-10T06:30:03;26.80;;;10.63;;
17510;SDS011;8873;48.818;9.422;2024-01-10T06:32:31;29.90;;;11.53;;
17510;SDS011;8873;48.818;9.422;2024-01-10T06:34:59;25.17;;;10.57;;
17510;SDS011;8873;48.818;9.422;2024-01-10T06:37:27;37.30;;;12.67;;
17510;SDS011;8873;48.818;9.422;2024-01-10T06:39:55;37.23;;;13.33;;
17510;SDS011;8873;48.818;9.422;2024-01-10T06:42:23;42.30;;;13.00;;
17510;SDS011;8873;48.818;9.422;2024-01-10T06:44:52;39.30;;;12.90;;
17510;SDS011;8873;48.818;9.422;2024-01-10T06:47:19;31.33;;;11.80;;
17510;SDS011;8873;48.818;9.422;2024-01-10T06:49:48;25.90;;;11.30;;
17510;SDS011;8873;48.818;9.422;2024-01-10T06:52:16;33.53;;;11.97;;
17510;SDS011;8873;48.818;9.422;2024-01-10T06:54:43;31.27;;;13.00;;
17510;SDS011;8873;48.818;9.422;2024-01-10T06:57:11;27.90;;;10.23;;
17510;SDS011;8873;48.818;9.422;2024-01-10T06:59:38;22.07;;;10.17;;
17510;SDS011;8873;48.818;9.422;2024-01-10T07:02:08;25.87;;;10.17;;
17510;SDS011;8873;48.818;9.422;2024-01-10T07:04:36;30.03;;;11.83;;
17510;SDS011;8873;48.818;9.422;2024-01-10T07:07:04;28.93;;;10.37;;
17510;SDS011;8873;48.818;9.422;2024-01-10T07:09:32;29.73;;;9.87;;
17510;SDS011;8873;48.818;9.422;2024-01-10T07:11:59;25.03;;;10.43;;
17510;SDS011;8873;48.818;9.422;2024-01-10T07:14:28;27.07;;;10.77;;
17510;SDS011;8873;48.818;9.422;2024-01-10T07:16:56;49.43;;;13.67;;
17510;SDS011;8873;48.818;9.422;2024-01-10T07:19:25;49.73;;;16.27;;
17510;SDS011;8873;48.818;9.422;2024-01-10T07:21:52;38.17;;;13.33;;
17510;SDS011;8873;48.818;9.422;2024-01-10T07:24:21;34.07;;;11.63;;
17510;SDS011;8873;48.818;9.422;2024-01-10T07:26:49;29.30;;;11.57;;
17510;SDS011;8873;48.818;9.422;2024-01-10T07:29:17;27.40;;;11.30;;
17510;SDS011;8873;48.818;9.422;2024-01-10T07:31:46;28.80;;;11.60;;
17510;SDS011;8873;48.818;9.422;2024-01-10T07:34:15;27.17;;;11.27;;
17510;SDS011;8873;48.818;9.422;2024-01-10T07:36:44;28.97;;;10.67;;
17510;SDS011;8873;48.818;9.422;2024-01-10T07:39:12;33.07;;;11.80;;
17510;SDS011;8873;48.818;9.422;2024-01-10T07:41:42;34.67;;;12.17;;
17510;SDS011;8873;48.818;9.422;2024-01-10T07:44:09;30.07;;;11.57;;
17510;SDS011;8873;48.818;9.422;2024-01-10T07:46:37;27.57;;;11.27;;
17510;SDS011;8873;48.818;9.422;2024-01-10T07:49:05;30.83;;;11.53;;
17510;SDS011;8873;48.818;9.422;2024-01-10T07:51:33;26.50;;;11.77;;
17510;SDS011;8873;48.818;9.422;2024-01-10T07:54:02;29.77;;;11.63;;
17510;SDS011;8873;48.818;9.422;2024-01-10T07:56:30;30.73;;;11.57;;
17510;SDS011;8873;48.818;9.422;2024-01-10T07:58:58;27.93;;;11.53;;
17510;SDS011;8873;48.818;9.422;2024-01-10T08:01:25;29.80;;;11.90;;
17510;SDS011;8873;48.818;9.422;2024-01-10T08:03:53;29.73;;;11.77;;
17510;SDS011;8873;48.818;9.422;2024-01-10T08:06:22;26.27;;;11.67;;
17510;SDS011;8873;48.818;9.422;2024-01-10T08:08:58;27.03;;;10.87;;
17510;SDS011;8873;48.818;9.422;2024-01-10T08:11:27;28.27;;;11.27;;
17510;SDS011;8873;48.818;9.422;2024-01-10T08:13:55;29.20;;;12.00;;
17510;SDS011;8873;48.818;9.422;2024-01-10T08:16:22;32.73;;;12.00;;
17510;SDS011;8873;48.818;9.422;2024-01-10T08:18:50;32.63;;;12.10;;
17510;SDS011;8873;48.818;9.422;2024-01-10T08:21:18;27.93;;;11.90;;
17510;SDS011;8873;48.818;9.422;2024-01-10T08:23:45;32.43;;;12.17;;
17510;SDS011;8873;48.818;9.422;2024-01-10T08:26:13;27.23;;;12.07;;
17510;SDS011;8873;48.818;9.422;2024-01-10T08:28:43;28.37;;;11.43;;
17510;SDS011;8873;48.818;9.422;2024-01-10T08:31:10;29.23;;;12.57;;
17510;SDS011;8873;48.818;9.422;2024-01-10T08:33:39;28.90;;;12.77;;
17510;SDS011;8873;48.818;9.422;2024-01-10T08:36:07;29.47;;;11.53;;
17510;SDS011;8873;48.818;9.422;2024-01-10T08:38:35;34.30;;;12.93;;
17510;SDS011;8873;48.818;9.422;2024-01-10T08:41:03;27.33;;;12.27;;
17510;SDS011;8873;48.818;9.422;2024-01-10T08:43:31;29.70;;;12.07;;
17510;SDS011;8873;48.818;9.422;2024-01-10T08:46:00;34.77;;;12.37;;
17510;SDS011;8873;48.818;9.422;2024-01-10T08:48:27;30.63;;;12.73;;
17510;SDS011;8873;48.818;9.422;2024-01-10T08:50:55;36.60;;;12.80;;
17510;SDS011;8873;48.818;9.422;2024-01-10T08:53:23;35.73;;;12.73;;
17510;SDS011;8873;48.818;9.422;2024-01-10T08:55:51;34.03;;;13.27;;
17510;SDS011;8873;48.818;9.422;2024-01-10T08:58:19;32.43;;;12.87;;
17510;SDS011;8873;48.818;9.422;2024-01-10T09:00:46;31.07;;;12.27;;
17510;SDS011;8873;48.818;9.422;2024-01-10T09:03:16;42.90;;;14.17;;
17510;SDS011;8873;48.818;9.422;2024-01-10T09:05:43;37.93;;;12.53;;
17510;SDS011;8873;48.818;9.422;2024-01-10T09:08:27;31.67;;;12.27;;
17510;SDS011;8873;48.818;9.422;2024-01-10T09:10:55;29.80;;;12.70;;
17510;SDS011;8873;48.818;9.422;2024-01-10T09:13:23;36.30;;;14.33;;
17510;SDS011;8873;48.818;9.422;2024-01-10T09:15:50;37.13;;;12.97;;
17510;SDS011;8873;48.818;9.422;2024-01-10T09:18:19;34.90;;;13.40;;
17510;SDS011;8873;48.818;9.422;2024-01-10T09:20:47;34.43;;;14.03;;
17510;SDS011;8873;48.818;9.422;2024-01-10T09:23:15;30.00;;;12.77;;
17510;SDS011;8873;48.818;9.422;2024-01-10T09:25:43;29.07;;;12.87;;
17510;SDS011;8873;48.818;9.422;2024-01-10T09:28:11;32.03;;;13.17;;
17510;SDS011;8873;48.818;9.422;2024-01-10T09:30:38;32.70;;;13.20;;
17510;SDS011;8873;48.818;9.422;2024-01-10T09:33:08;35.60;;;13.67;;
17510;SDS011;8873;48.818;9.422;2024-01-10T09:35:37;33.27;;;14.20;;
17510;SDS011;8873;48.818;9.422;2024-01-10T09:38:05;33.77;;;14.77;;
17510;SDS011;8873;48.818;9.422;2024-01-10T09:40:33;29.30;;;12.97;;
17510;SDS011;8873;48.818;9.422;2024-01-10T09:43:01;33.87;;;14.73;;
17510;SDS011;8873;48.818;9.422;2024-01-10T09:45:29;29.30;;;12.23;;
17510;SDS011;8873;48.818;9.422;2024-01-10T09:47:58;41.07;;;14.10;;
17510;SDS011;8873;48.818;9.422;2024-01-10T09:50:26;39.13;;;13.70;;
17510;SDS011;8873;48.818;9.422;2024-01-10T09:52:57;33.87;;;13.47;;
17510;SDS011;8873;48.818;9.422;2024-01-10T09:55:28;42.57;;;14.83;;
17510;SDS011;8873;48.818;9.422;2024-01-10T09:57:56;39.77;;;14.90;;
17510;SDS011;8873;48.818;9.422;2024-01-10T10:00:24;40.83;;;14.83;;
17510;SDS011;8873;48.818;9.422;2024-01-10T10:02:53;35.63;;;14.17;;
17510;SDS011;8873;48.818;9.422;2024-01-10T10:05:21;38.23;;;14.97;;
17510;SDS011;8873;48.818;9.422;2024-01-10T10:07:50;30.40;;;13.63;;
17510;SDS011;8873;48.818;9.422;2024-01-10T10:10:21;39.33;;;14.20;;
17510;SDS011;8873;48.818;9.422;2024-01-10T10:12:49;32.20;;;13.60;;
17510;SDS011;8873;48.818;9.422;2024-01-10T10:15:22;34.43;;;14.03;;
17510;SDS011;8873;48.818;9.422;2024-01-10T10:17:50;34.20;;;14.60;;
17510;SDS011;8873;48.818;9.422;2024-01-10T10:20:20;36.93;;;14.10;;
17510;SDS011;8873;48.818;9.422;2024-01-10T10:22:58;33.77;;;12.93;;
17510;SDS011;8873;48.818;9.422;2024-01-10T10:25:29;34.40;;;14.13;;
17510;SDS011;8873;48.818;9.422;2024-01-10T10:27:57;34.00;;;14.40;;
17510;SDS011;8873;48.818;9.422;2024-01-10T10:30:25;38.37;;;14.90;;
17510;SDS011;8873;48.818;9.422;2024-01-10T10:32:54;34.43;;;14.37;;
17510;SDS011;8873;48.818;9.422;2024-01-10T10:35:22;38.13;;;14.90;;
17510;SDS011;8873;48.818;9.422;2024-01-10T10:38:04;35.87;;;15.23;;
17510;SDS011;8873;48.818;9.422;2024-01-10T10:40:33;38.33;;;15.53;;
17510;SDS011;8873;48.818;9.422;2024-01-10T10:43:01;38.77;;;14.70;;
17510;SDS011;8873;48.818;9.422;2024-01-10T10:45:31;31.27;;;14.07;;
17510;SDS011;8873;48.818;9.422;2024-01-10T10:47:59;38.27;;;15.70;;
17510;SDS011;8873;48.818;9.422;2024-01-10T10:50:28;36.27;;;15.00;;
17510;SDS011;8873;48.818;9.422;2024-01-10T10:52:55;42.50;;;16.17;;
17510;SDS011;8873;48.818;9.422;2024-01-10T10:55:24;35.50;;;14.77;;
17510;SDS011;8873;48.818;9.422;2024-01-10T10:57:55;36.67;;;15.13;;
17510;SDS011;8873;48.818;9.422;2024-01-10T11:00:33;35.40;;;14.87;;
17510;SDS011;8873;48.818;9.422;2024-01-10T11:03:02;37.50;;;14.70;;
17510;SDS011;8873;48.818;9.422;2024-01-10T11:05:30;43.15;;;16.77;;
17510;SDS011;8873;48.818;9.422;2024-01-10T11:07:59;38.33;;;15.52;;
17510;SDS011;8873;48.818;9.422;2024-01-10T11:10:32;42.08;;;15.90;;
17510;SDS011;8873;48.818;9.422;2024-01-10T11:13:08;40.43;;;14.83;;
17510;SDS011;8873;48.818;9.422;2024-01-10T11:15:58;41.85;;;16.23;;
17510;SDS011;8873;48.818;9.422;2024-01-10T11:18:39;38.30;;;16.40;;
17510;SDS011;8873;48.818;9.422;2024-01-10T11:21:13;34.97;;;15.75;;
17510;SDS011;8873;48.818;9.422;2024-01-10T11:23:45;36.80;;;15.93;;
17510;SDS011;8873;48.818;9.422;2024-01-10T11:26:14;39.08;;;15.02;;
17510;SDS011;8873;48.818;9.422;2024-01-10T11:28:43;35.42;;;14.77;;
17510;SDS011;8873;48.818;9.422;2024-01-10T11:31:13;37.05;;;16.02;;
17510;SDS011;8873;48.818;9.422;2024-01-10T11:33:41;37.83;;;15.63;;
17510;SDS011;8873;48.818;9.422;2024-01-10T11:36:12;34.88;;;14.32;;
17510;SDS011;8873;48.818;9.422;2024-01-10T11:38:41;35.03;;;15.70;;
17510;SDS011;8873;48.818;9.422;2024-01-10T11:41:12;34.83;;;15.15;;
17510;SDS011;8873;48.818;9.422;2024-01-10T11:43:40;34.17;;;15.13;;
17510;SDS011;8873;48.818;9.422;2024-01-10T11:46:10;35.63;;;16.35;;
17510;SDS011;8873;48.818;9.422;2024-01-10T11:48:38;32.85;;;14.73;;
17510;SDS011;8873;48.818;9.422;2024-01-10T11:51:07;38.13;;;16.55;;
17510;SDS011;8873;48.818;9.422;2024-01-10T11:53:38;38.55;;;16.88;;
17510;SDS011;8873;48.818;9.422;2024-01-10T11:56:09;36.38;;;16.50;;
17510;SDS011;8873;48.818;9.422;2024-01-10T11:58:52;35.90;;;15.70;;
17510;SDS011;8873;48.818;9.422;2024-01-10T12:01:21;41.65;;;17.45;;
17510;SDS011;8873;48.818;9.422;2024-01-10T12:03:52;38.92;;;17.30;;
17510;SDS011;8873;48.818;9.422;2024-01-10T12:06:39;35.42;;;16.10;;
17510;SDS011;8873;48.818;9.422;2024-01-10T12:09:07;37.38;;;17.13;;
17510;SDS011;8873;48.818;9.422;2024-01-10T12:11:36;32.22;;;16.23;;
17510;SDS011;8873;48.818;9.422;2024-01-10T12:14:05;35.55;;;16.95;;
17510;SDS011;8873;48.818;9.422;2024-01-10T12:16:38;32.40;;;15.70;;
17510;SDS011;8873;48.818;9.422;2024-01-10T12:19:06;35.05;;;16.60;;
17510;SDS011;8873;48.818;9.422;2024-01-10T12:21:32;40.78;;;16.52;;
17510;SDS011;8873;48.818;9.422;2024-01-10T12:24:00;37.35;;;17.45;;
17510;SDS011;8873;48.818;9.422;2024-01-10T12:26:32;34.63;;;16.63;;
17510;SDS011;8873;48.818;9.422;2024-01-10T12:29:00;35.40;;;16.77;;
17510;SDS011;8873;48.818;9.422;2024-01-10T12:31:28;36.60;;;16.83;;
17510;SDS011;8873;48.818;9.422;2024-01-10T12:33:58;33.97;;;16.98;;
17510;SDS011;8873;48.818;9.422;2024-01-10T12:36:26;36.38;;;17.67;;
17510;SDS011;8873;48.818;9.422;2024-01-10T12:38:54;39.72;;;17.83;;
17510;SDS011;8873;48.818;9.422;2024-01-10T12:41:21;41.35;;;18.23;;
17510;SDS011;8873;48.818;9.422;2024-01-10T12:43:49;35.55;;;17.08;;
17510;SDS011;8873;48.818;9.422;2024-01-10T12:46:19;37.72;;;18.75;;
17510;SDS011;8873;48.818;9.422;2024-01-10T12:48:57;38.42;;;17.00;;
17510;SDS011;8873;48.818;9.422;2024-01-10T12:51:27;34.33;;;17.40;;
17510;SDS011;8873;48.818;9.422;2024-01-10T12:53:55;37.33;;;16.90;;
17510;SDS011;8873;48.818;9.422;2024-01-10T12:56:25;35.40;;;17.27;;
17510;SDS011;8873;48.818;9.422;2024-01-10T12:58:53;38.55;;;17.55;;
17510;SDS011;8873;48.818;9.422;2024-01-10T13:01:23;35.42;;;16.38;;
17510;SDS011;8873;48.818;9.422;2024-01-10T13:03:51;38.55;;;18.40;;
17510;SDS011;8873;48.818;9.422;2024-01-10T13:06:19;34.33;;;16.65;;
17510;SDS011;8873;48.818;9.422;2024-01-10T13:08:50;38.53;;;17.65;;
17510;SDS011;8873;48.818;9.422;2024-01-10T13:11:18;47.63;;;19.50;;
17510;SDS011;8873;48.818;9.422;2024-01-10T13:13:47;37.50;;;17.35;;
17510;SDS011;8873;48.818;9.422;2024-01-10T13:16:14;37.33;;;17.20;;
17510;SDS011;8873;48.818;9.422;2024-01-10T13:18:45;39.75;;;17.17;;
17510;SDS011;8873;48.818;9.422;2024-01-10T13:21:12;46.80;;;18.33;;
17510;SDS011;8873;48.818;9.422;2024-01-10T13:23:40;40.10;;;19.23;;
17510;SDS011;8873;48.818;9.422;2024-01-10T13:26:09;42.72;;;18.70;;
17510;SDS011;8873;48.818;9.422;2024-01-10T13:28:38;39.20;;;18.55;;
17510;SDS011;8873;48.818;9.422;2024-01-10T13:31:07;37.70;;;17.73;;
17510;SDS011;8873;48.818;9.422;2024-01-10T13:33:36;37.83;;;17.33;;
17510;SDS011;8873;48.818;9.422;2024-01-10T13:36:12;40.70;;;18.67;;
17510;SDS011;8873;48.818;9.422;2024-01-10T13:38:40;40.95;;;16.75;;
17510;SDS011;8873;48.818;9.422;2024-01-10T13:41:09;38.38;;;17.45;;
17510;SDS011;8873;48.818;9.422;2024-01-10T13:43:37;38.75;;;17.15;;
17510;SDS011;8873;48.818;9.422;2024-01-10T13:46:06;37.20;;;16.40;;
17510;SDS011;8873;48.818;9.422;2024-01-10T13:48:35;40.22;;;16.88;;
17510;SDS011;8873;48.818;9.422;2024-01-10T13:51:03;35.13;;;16.38;;
17510;SDS011;8873;48.818;9.422;2024-01-10T13:53:31;38.17;;;18.23;;
17510;SDS011;8873;48.818;9.422;2024-01-10T13:55:58;39.35;;;17.02;;
17510;SDS011;8873;48.818;9.422;2024-01-10T13:58:27;39.78;;;16.90;;
17510;SDS011;8873;48.818;9.422;2024-01-10T14:00:55;44.38;;;18.67;;
17510;SDS011;8873;48.818;9.422;2024-01-10T14:03:23;43.47;;;17.30;;
17510;SDS011;8873;48.818;9.422;2024-01-10T14:05:50;33.75;;;16.73;;
17510;SDS011;8873;48.818;9.422;2024-01-10T14:08:18;36.28;;;16.73;;
17510;SDS011;8873;48.818;9.422;2024-01-10T14:10:46;37.92;;;17.88;;
17510;SDS011;8873;48.818;9.422;2024-01-10T14:13:14;39.67;;;18.00;;
17510;SDS011;8873;48.818;9.422;2024-01-10T14:15:43;36.15;;;16.60;;
17510;SDS011;8873;48.818;9.422;2024-01-10T14:18:11;39.05;;;16.45;;
17510;SDS011;8873;48.818;9.422;2024-01-10T14:20:39;38.58;;;17.60;;
17510;SDS011;8873;48.818;9.422;2024-01-10T14:23:09;33.00;;;15.85;;
17510;SDS011;8873;48.818;9.422;2024-01-10T14:25:37;40.95;;;17.65;;
17510;SDS011;8873;48.818;9.422;2024-01-10T14:28:04;37.55;;;16.23;;
17510;SDS011;8873;48.818;9.422;2024-01-10T14:30:32;39.13;;;17.27;;
17510;SDS011;8873;48.818;9.422;2024-01-10T14:33:02;37.20;;;17.05;;
17510;SDS011;8873;48.818;9.422;2024-01-10T14:35:30;32.78;;;16.65;;
17510;SDS011;8873;48.818;9.422;2024-01-10T14:37:58;37.40;;;16.58;;
17510;SDS011;8873;48.818;9.422;2024-01-10T14:40:26;43.13;;;17.40;;
17510;SDS011;8873;48.818;9.422;2024-01-10T14:42:54;38.75;;;17.02;;
17510;SDS011;8873;48.818;9.422;2024-01-10T14:45:21;42.15;;;17.85;;